createdAt,value
2018-03-22T00:01:39.355Z,1.40
2018-03-22T00:04:07.761Z,1.50
2018-03-22T00:06:35.388Z,1.40
2018-03-22T00:09:03.029Z,1.50
2018-03-22T00:11:30.669Z,1.50
2018-03-22T00:13:58.292Z,1.50
2018-03-22T00:16:26.657Z,1.50
2018-03-22T00:18:54.276Z,1.50
2018-03-22T00:21:21.896Z,1.50
2018-03-22T00:23:50.303Z,1.50
2018-03-22T00:26:17.947Z,1.40
2018-03-22T00:28:45.543Z,1.50
2018-03-22T00:33:58.246Z,1.40
2018-03-22T00:36:25.861Z,1.30
2018-03-22T00:38:53.492Z,1.30
2018-03-22T00:41:21.125Z,1.30
2018-03-22T00:43:48.743Z,1.30
2018-03-22T00:46:16.389Z,1.30
2018-03-22T00:48:43.980Z,1.30
2018-03-22T00:51:12.600Z,1.40
2018-03-22T00:53:40.183Z,1.30
2018-03-22T00:56:07.834Z,1.30
2018-03-22T00:58:35.436Z,1.30
2018-03-22T01:01:03.025Z,1.40
2018-03-22T01:03:30.632Z,1.40
2018-03-22T01:05:58.237Z,1.30
2018-03-22T01:08:25.863Z,1.30
2018-03-22T01:10:53.468Z,1.30
2018-03-22T01:13:21.100Z,1.40
2018-03-22T01:15:49.452Z,1.40
2018-03-22T01:18:17.080Z,1.40
2018-03-22T01:20:44.685Z,1.50
2018-03-22T01:23:12.277Z,1.50
2018-03-22T01:25:40.664Z,1.50
2018-03-22T01:28:08.289Z,1.50
2018-03-22T01:30:39.400Z,1.40
2018-03-22T01:33:07.004Z,1.40
2018-03-22T01:35:35.412Z,1.40
2018-03-22T01:38:02.991Z,1.30
2018-03-22T01:40:30.602Z,1.40
2018-03-22T01:42:58.955Z,1.40
2018-03-22T01:45:26.613Z,1.40
2018-03-22T01:47:54.204Z,1.40
2018-03-22T01:50:22.612Z,1.40
2018-03-22T01:53:01.858Z,1.40
2018-03-22T01:55:29.482Z,1.40
2018-03-22T01:57:57.834Z,1.40
2018-03-22T02:00:25.446Z,1.40
2018-03-22T02:02:53.021Z,1.40
2018-03-22T02:05:20.661Z,1.40
2018-03-22T02:07:48.279Z,1.40
2018-03-22T02:10:15.877Z,1.40
2018-03-22T02:12:43.501Z,1.30
2018-03-22T02:15:11.096Z,1.30
2018-03-22T02:17:38.718Z,1.30
2018-03-22T02:20:06.301Z,1.20
2018-03-22T02:22:34.672Z,1.20
2018-03-22T02:25:03.045Z,1.20
2018-03-22T02:27:31.423Z,1.20
2018-03-22T02:29:59.902Z,1.10
2018-03-22T02:32:28.293Z,1.10
2018-03-22T02:34:56.673Z,1.10
2018-03-22T02:37:24.288Z,1.00
2018-03-22T02:39:51.891Z,1.10
2018-03-22T02:42:20.266Z,1.10
2018-03-22T02:44:48.640Z,1.00
2018-03-22T02:47:17.019Z,1.00
2018-03-22T02:49:45.402Z,1.00
2018-03-22T02:52:13.777Z,1.00
2018-03-22T02:54:42.153Z,1.00
2018-03-22T02:57:10.547Z,0.90
2018-03-22T02:59:38.133Z,0.90
2018-03-22T03:02:05.742Z,0.90
2018-03-22T03:04:34.157Z,0.80
2018-03-22T03:07:01.772Z,0.80
2018-03-22T03:09:29.390Z,0.80
2018-03-22T03:11:56.994Z,0.70
2018-03-22T03:14:24.628Z,0.70
2018-03-22T03:16:52.249Z,0.70
2018-03-22T03:19:19.869Z,0.70
2018-03-22T03:21:47.511Z,0.60
2018-03-22T03:24:15.114Z,0.60
2018-03-22T03:26:43.494Z,0.60
2018-03-22T03:29:11.868Z,0.60
2018-03-22T03:31:40.226Z,0.60
2018-03-22T03:34:07.856Z,0.60
2018-03-22T03:36:35.476Z,0.60
2018-03-22T03:39:03.106Z,0.60
2018-03-22T03:41:30.727Z,0.60
2018-03-22T03:43:58.317Z,0.60
2018-03-22T03:46:25.940Z,0.60
2018-03-22T03:48:53.540Z,0.60
2018-03-22T03:51:21.157Z,0.50
2018-03-22T03:53:48.748Z,0.50
2018-03-22T03:56:16.357Z,0.50
2018-03-22T03:58:43.963Z,0.50
2018-03-22T04:01:11.574Z,0.50
2018-03-22T04:03:39.917Z,0.50
2018-03-22T04:06:07.525Z,0.50
2018-03-22T04:08:35.113Z,0.50
2018-03-22T04:11:02.743Z,0.50
2018-03-22T04:13:30.342Z,0.50
2018-03-22T04:15:57.953Z,0.50
2018-03-22T04:18:26.345Z,0.60
2018-03-22T04:20:53.948Z,0.60
2018-03-22T04:23:21.608Z,0.60
2018-03-22T04:25:49.216Z,0.60
2018-03-22T04:28:16.825Z,0.70
2018-03-22T04:30:44.431Z,0.70
2018-03-22T04:33:12.816Z,0.70
2018-03-22T04:35:40.485Z,0.70
2018-03-22T04:38:08.848Z,0.80
2018-03-22T04:40:37.237Z,0.90
2018-03-22T04:43:04.840Z,0.80
2018-03-22T04:45:32.431Z,0.90
2018-03-22T04:48:00.062Z,0.90
2018-03-22T04:50:27.660Z,0.90
2018-03-22T04:52:56.010Z,1.00
2018-03-22T04:55:24.696Z,1.00
2018-03-22T04:57:52.278Z,1.00
2018-03-22T05:00:19.927Z,1.00
2018-03-22T05:02:47.522Z,1.00
2018-03-22T05:05:15.150Z,0.90
2018-03-22T05:07:42.747Z,0.90
2018-03-22T05:10:10.374Z,1.00
2018-03-22T05:12:38.729Z,1.00
2018-03-22T05:15:06.362Z,0.90
2018-03-22T05:17:33.949Z,1.00
2018-03-22T05:20:01.566Z,0.90
2018-03-22T05:22:29.175Z,0.90
2018-03-22T05:24:56.821Z,1.00
2018-03-22T05:27:24.420Z,1.00
2018-03-22T05:29:52.802Z,1.00
2018-03-22T05:32:21.164Z,1.00
2018-03-22T05:34:48.754Z,1.00
2018-03-22T05:37:16.383Z,1.00
2018-03-22T05:39:43.976Z,1.00
2018-03-22T05:42:11.676Z,1.10
2018-03-22T05:44:39.282Z,1.00
2018-03-22T05:47:07.655Z,1.20
2018-03-22T05:49:36.014Z,1.30
2018-03-22T05:52:03.631Z,1.30
2018-03-22T05:54:31.222Z,1.30
2018-03-22T05:56:59.636Z,1.30
2018-03-22T05:59:28.009Z,1.40
2018-03-22T06:01:56.356Z,1.40
2018-03-22T06:04:23.978Z,1.40
2018-03-22T06:06:51.561Z,1.40
2018-03-22T06:09:19.184Z,1.50
2018-03-22T06:11:46.781Z,1.50
2018-03-22T06:14:14.413Z,1.50
2018-03-22T06:16:42.200Z,1.60
2018-03-22T06:19:09.887Z,1.60
2018-03-22T06:21:37.484Z,1.60
2018-03-22T06:24:05.886Z,1.60
2018-03-22T06:26:33.481Z,1.60
2018-03-22T06:29:01.095Z,1.70
2018-03-22T06:31:28.707Z,1.70
2018-03-22T06:33:56.376Z,1.70
2018-03-22T06:36:23.978Z,1.80
2018-03-22T06:38:51.615Z,1.80
2018-03-22T06:41:19.984Z,1.90
2018-03-22T06:43:48.329Z,1.90
2018-03-22T06:46:15.928Z,1.90
2018-03-22T06:48:44.276Z,2.00
2018-03-22T06:51:11.885Z,2.00
2018-03-22T06:53:39.463Z,2.00
2018-03-22T06:56:07.113Z,2.00
2018-03-22T06:58:34.710Z,2.10
2018-03-22T07:01:03.103Z,2.10
2018-03-22T07:03:30.688Z,2.10
2018-03-22T07:05:59.065Z,2.10
2018-03-22T07:08:27.440Z,2.10
2018-03-22T07:10:55.832Z,2.00
2018-03-22T07:13:23.430Z,2.00
2018-03-22T07:15:51.066Z,2.00
2018-03-22T07:18:18.659Z,2.00
2018-03-22T07:20:47.005Z,2.10
2018-03-22T07:23:14.616Z,2.10
2018-03-22T07:25:42.247Z,2.10
2018-03-22T07:28:09.856Z,2.10
2018-03-22T07:30:38.206Z,2.00
2018-03-22T07:33:05.821Z,1.90
2018-03-22T07:35:33.417Z,1.90
2018-03-22T07:38:01.035Z,1.80
2018-03-22T07:40:28.621Z,1.80
2018-03-22T07:43:01.832Z,1.60
2018-03-22T07:45:29.437Z,1.60
2018-03-22T07:47:57.099Z,1.60
2018-03-22T07:50:24.699Z,1.60
2018-03-22T07:52:52.330Z,1.60
2018-03-22T07:55:19.964Z,1.60
2018-03-22T07:57:48.321Z,1.60
2018-03-22T08:00:15.944Z,1.60
2018-03-22T08:02:43.540Z,1.60
2018-03-22T08:05:11.164Z,1.60
2018-03-22T08:07:38.759Z,1.60
2018-03-22T08:10:06.444Z,1.60
2018-03-22T08:12:34.817Z,1.70
2018-03-22T08:15:03.246Z,1.70
2018-03-22T08:17:30.828Z,1.70
2018-03-22T08:19:59.678Z,1.80
2018-03-22T08:22:28.123Z,1.70
2018-03-22T08:24:56.501Z,1.70
2018-03-22T08:27:24.080Z,1.70
2018-03-22T08:29:52.491Z,1.70
2018-03-22T08:32:20.078Z,1.70
2018-03-22T08:34:47.681Z,1.70
2018-03-22T08:37:15.306Z,1.60
2018-03-22T08:39:42.920Z,1.60
2018-03-22T08:42:10.542Z,1.60
2018-03-22T08:44:38.916Z,1.50
2018-03-22T08:47:07.299Z,1.50
2018-03-22T08:49:35.664Z,1.50
2018-03-22T08:52:03.342Z,1.50
2018-03-22T08:54:31.697Z,1.40
2018-03-22T08:56:59.342Z,1.40
2018-03-22T08:59:26.973Z,1.30
2018-03-22T09:01:54.657Z,1.30
2018-03-22T09:04:22.284Z,1.20
2018-03-22T09:06:50.725Z,1.20
2018-03-22T09:09:18.336Z,1.10
2018-03-22T09:11:45.954Z,1.10
2018-03-22T09:14:14.407Z,1.10
2018-03-22T09:16:42.181Z,1.10
2018-03-22T09:19:09.808Z,1.10
2018-03-22T09:21:37.409Z,1.10
2018-03-22T09:24:05.018Z,1.10
2018-03-22T09:29:34.957Z,1.00
2018-03-22T09:32:02.552Z,1.00
2018-03-22T09:34:30.189Z,1.00
2018-03-22T09:36:58.546Z,1.00
2018-03-22T09:39:26.925Z,1.00
2018-03-22T09:41:54.548Z,0.90
2018-03-22T09:44:22.949Z,1.00
2018-03-22T09:46:50.549Z,1.00
2018-03-22T09:49:18.183Z,1.00
2018-03-22T09:51:45.810Z,1.00
2018-03-22T09:54:14.187Z,1.00
2018-03-22T09:56:42.568Z,1.00
2018-03-22T09:59:10.925Z,1.10
2018-03-22T10:01:38.526Z,1.10
2018-03-22T10:04:06.136Z,1.10
2018-03-22T10:06:34.100Z,1.10
2018-03-22T10:09:01.796Z,1.20
2018-03-22T10:11:30.201Z,1.30
2018-03-22T10:13:57.800Z,1.20
2018-03-22T10:16:25.423Z,1.30
2018-03-22T10:18:53.037Z,1.30
2018-03-22T10:21:20.668Z,1.40
2018-03-22T10:23:48.276Z,1.40
2018-03-22T10:26:16.669Z,1.60
2018-03-22T10:28:45.026Z,1.70
2018-03-22T10:31:12.614Z,1.60
2018-03-22T10:33:40.223Z,1.70
2018-03-22T10:36:07.824Z,1.70
2018-03-22T10:38:36.192Z,1.80
2018-03-22T10:41:04.628Z,1.90
2018-03-22T10:43:32.225Z,1.80
2018-03-22T10:45:59.830Z,1.90
2018-03-22T10:48:27.516Z,1.90
2018-03-22T10:50:55.108Z,2.00
2018-03-22T10:53:23.523Z,2.00
2018-03-22T10:55:51.129Z,2.00
2018-03-22T10:58:18.730Z,2.00
2018-03-22T11:00:51.918Z,2.10
2018-03-22T11:03:25.289Z,2.00
2018-03-22T11:05:52.907Z,2.10
2018-03-22T11:08:20.532Z,2.10
2018-03-22T11:10:48.151Z,2.20
2018-03-22T11:13:16.540Z,2.20
2018-03-22T11:15:44.140Z,2.20
2018-03-22T11:18:11.713Z,2.30
2018-03-22T11:20:39.339Z,2.30
2018-03-22T11:23:07.771Z,2.30
2018-03-22T11:25:35.421Z,2.30
2018-03-22T11:28:03.013Z,2.20
2018-03-22T11:30:30.600Z,2.20
2018-03-22T11:32:58.969Z,2.10
2018-03-22T11:35:27.334Z,2.20
2018-03-22T11:37:55.791Z,2.20
2018-03-22T11:40:23.876Z,2.20
2018-03-22T11:42:51.560Z,2.20
2018-03-22T11:45:19.171Z,2.30
2018-03-22T11:47:46.819Z,2.30
2018-03-22T11:50:14.419Z,2.30
2018-03-22T11:52:42.175Z,2.30
2018-03-22T11:55:09.784Z,2.40
2018-03-22T11:57:37.420Z,2.40
2018-03-22T12:00:05.783Z,2.40
2018-03-22T12:02:33.406Z,2.30
2018-03-22T12:05:01.016Z,2.40
2018-03-22T12:07:28.648Z,2.40
2018-03-22T12:09:56.260Z,2.40
2018-03-22T12:12:23.961Z,2.50
2018-03-22T12:14:51.563Z,2.40
2018-03-22T12:17:19.943Z,2.40
2018-03-22T12:19:47.596Z,2.30
2018-03-22T12:22:15.184Z,2.30
2018-03-22T12:24:42.794Z,2.30
2018-03-22T12:27:10.401Z,2.40
2018-03-22T12:29:38.025Z,2.30
2018-03-22T12:32:05.619Z,2.30
2018-03-22T12:34:34.008Z,2.30
2018-03-22T12:37:01.626Z,2.30
2018-03-22T12:39:29.261Z,2.30
2018-03-22T12:41:56.867Z,2.30
2018-03-22T12:44:24.505Z,2.40
2018-03-22T12:46:52.160Z,2.40
2018-03-22T12:49:19.788Z,2.40
2018-03-22T12:51:47.392Z,2.40
2018-03-22T12:54:15.001Z,2.50
2018-03-22T12:56:42.658Z,2.50
2018-03-22T12:59:10.292Z,2.50
2018-03-22T13:01:38.646Z,2.60
2018-03-22T13:04:06.230Z,2.60
2018-03-22T13:06:34.636Z,2.70
2018-03-22T13:09:02.236Z,2.70
2018-03-22T13:11:29.877Z,2.70
2018-03-22T13:13:57.460Z,2.70
2018-03-22T13:16:25.089Z,2.80
2018-03-22T13:18:52.733Z,2.70
2018-03-22T13:21:20.371Z,2.70
2018-03-22T13:23:48.757Z,2.80
2018-03-22T13:26:16.403Z,2.70
2018-03-22T13:28:44.774Z,2.80
2018-03-22T13:31:13.620Z,2.80
2018-03-22T13:33:42.032Z,2.80
2018-03-22T13:36:09.663Z,2.80
2018-03-22T13:38:37.331Z,2.90
2018-03-22T13:41:04.910Z,2.90
2018-03-22T13:43:32.522Z,2.90
2018-03-22T13:46:00.113Z,3.00
2018-03-22T13:48:27.740Z,2.90
2018-03-22T13:50:55.330Z,3.00
2018-03-22T13:53:22.941Z,3.00
2018-03-22T13:55:51.338Z,3.00
2018-03-22T13:58:18.953Z,3.00
2018-03-22T14:00:46.568Z,3.00
2018-03-22T14:03:14.964Z,3.10
2018-03-22T14:05:42.592Z,3.00
2018-03-22T14:08:10.225Z,3.10
2018-03-22T14:10:37.826Z,3.10
2018-03-22T14:13:05.429Z,3.00
2018-03-22T14:15:33.065Z,3.00
2018-03-22T14:18:00.684Z,3.00
2018-03-22T14:20:28.310Z,3.00
2018-03-22T14:22:55.912Z,3.00
2018-03-22T14:25:23.520Z,3.00
2018-03-22T14:27:51.104Z,3.00
2018-03-22T14:30:19.500Z,3.00
2018-03-22T14:32:47.861Z,2.90
2018-03-22T14:35:15.496Z,2.90
2018-03-22T14:37:43.142Z,2.90
2018-03-22T14:40:10.766Z,2.90
2018-03-22T14:42:38.369Z,2.90
2018-03-22T14:45:06.063Z,3.00
2018-03-22T14:47:33.634Z,3.00
2018-03-22T14:50:01.986Z,2.90
2018-03-22T14:52:29.666Z,2.90
2018-03-22T14:54:57.236Z,3.00
2018-03-22T14:57:24.868Z,3.00
2018-03-22T14:59:52.472Z,3.00
2018-03-22T15:02:20.108Z,3.00
2018-03-22T15:04:48.489Z,3.00
2018-03-22T15:07:16.895Z,3.00
2018-03-22T15:09:44.548Z,3.00
2018-03-22T15:12:12.917Z,3.00
2018-03-22T15:14:40.536Z,3.00
2018-03-22T15:17:08.198Z,3.00
2018-03-22T15:19:35.810Z,3.00
2018-03-22T15:22:03.432Z,3.00
2018-03-22T15:24:31.074Z,2.90
2018-03-22T15:26:58.697Z,2.90
2018-03-22T15:29:26.314Z,3.00
2018-03-22T15:31:53.921Z,3.00
2018-03-22T15:34:21.556Z,2.90
2018-03-22T15:36:49.174Z,2.90
2018-03-22T15:39:16.804Z,2.90
2018-03-22T15:41:44.393Z,2.90
2018-03-22T15:44:12.017Z,3.00
2018-03-22T15:46:39.643Z,2.90
2018-03-22T15:49:08.058Z,3.00
2018-03-22T15:51:35.654Z,2.90
2018-03-22T15:54:03.290Z,3.00
2018-03-22T15:56:30.885Z,3.00
2018-03-22T15:58:58.473Z,3.00
2018-03-22T16:01:26.882Z,2.90
2018-03-22T16:03:54.498Z,2.90
2018-03-22T16:06:22.124Z,2.90
2018-03-22T16:08:49.748Z,2.90
2018-03-22T16:11:17.395Z,2.90
2018-03-22T16:13:45.804Z,2.90
2018-03-22T16:16:13.454Z,2.90
2018-03-22T16:18:41.047Z,2.90
2018-03-22T16:21:08.697Z,2.90
2018-03-22T16:23:36.326Z,2.80
2018-03-22T16:26:03.964Z,2.80
2018-03-22T16:28:32.370Z,2.90
2018-03-22T16:31:00.012Z,2.80
2018-03-22T16:33:28.435Z,2.90
2018-03-22T16:35:56.096Z,2.90
2018-03-22T16:38:23.737Z,2.90
2018-03-22T16:40:51.390Z,2.90
2018-03-22T16:43:19.054Z,2.90
2018-03-22T16:45:46.675Z,2.90
2018-03-22T16:48:14.323Z,2.90
2018-03-22T16:50:41.986Z,2.90
2018-03-22T16:53:09.648Z,2.90
2018-03-22T16:55:37.285Z,2.90
2018-03-22T16:58:04.916Z,2.80
2018-03-22T17:00:32.547Z,2.90
2018-03-22T17:03:00.184Z,2.90
2018-03-22T17:05:27.815Z,2.90
2018-03-22T17:07:55.458Z,2.90
2018-03-22T17:10:23.101Z,2.90
2018-03-22T17:12:51.491Z,2.90
2018-03-22T17:15:19.161Z,2.80
2018-03-22T17:17:46.811Z,2.90
2018-03-22T17:20:15.252Z,2.90
2018-03-22T17:22:43.846Z,2.90
2018-03-22T17:25:11.504Z,2.90
2018-03-22T17:27:39.136Z,2.90
2018-03-22T17:30:06.795Z,2.90
2018-03-22T17:32:34.444Z,2.90
2018-03-22T17:35:02.127Z,2.90
2018-03-22T17:37:29.777Z,2.90
2018-03-22T17:39:57.441Z,2.90
2018-03-22T17:42:25.086Z,2.90
2018-03-22T17:44:52.714Z,3.00
2018-03-22T17:47:21.118Z,3.00
2018-03-22T17:49:48.774Z,2.90
2018-03-22T17:52:16.421Z,3.00
2018-03-22T17:54:44.081Z,3.00
2018-03-22T17:57:12.508Z,3.00
2018-03-22T17:59:40.136Z,3.00
2018-03-22T18:02:07.795Z,3.00
2018-03-22T18:04:35.454Z,3.00
2018-03-22T18:07:03.124Z,3.00
2018-03-22T18:09:30.806Z,3.00
2018-03-22T18:11:58.489Z,3.00
2018-03-22T18:14:26.137Z,3.00
2018-03-22T18:16:53.934Z,3.00
2018-03-22T18:19:21.585Z,2.90
2018-03-22T18:21:49.299Z,2.90
2018-03-22T18:24:16.952Z,3.00
2018-03-22T18:26:44.590Z,3.00
2018-03-22T18:29:12.998Z,2.90
2018-03-22T18:31:40.675Z,2.90
2018-03-22T18:34:08.327Z,2.90
2018-03-22T18:36:35.984Z,2.90
2018-03-22T18:39:03.641Z,3.00
2018-03-22T18:41:31.269Z,2.90
2018-03-22T18:43:58.917Z,3.00
2018-03-22T18:46:26.569Z,2.90
2018-03-22T18:48:54.262Z,3.00
2018-03-22T18:51:25.340Z,3.00
2018-03-22T18:53:52.993Z,3.00
2018-03-22T18:56:20.685Z,3.00
2018-03-22T18:58:48.355Z,3.00
2018-03-22T19:01:16.029Z,3.00
2018-03-22T19:03:43.674Z,3.00
2018-03-22T19:06:11.337Z,3.00
2018-03-22T19:08:39.004Z,3.00
2018-03-22T19:11:06.850Z,3.00
2018-03-22T19:13:34.529Z,3.00
2018-03-22T19:16:02.213Z,3.00
2018-03-22T19:18:29.881Z,3.00
2018-03-22T19:20:58.291Z,3.10
2018-03-22T19:23:25.960Z,3.10
2018-03-22T19:25:53.637Z,3.10
2018-03-22T19:28:21.312Z,3.10
2018-03-22T19:30:48.962Z,3.10
2018-03-22T19:33:16.614Z,3.10
2018-03-22T19:35:44.265Z,3.10
2018-03-22T19:38:11.944Z,3.10
2018-03-22T19:40:39.596Z,3.20
2018-03-22T19:43:07.253Z,3.20
2018-03-22T19:45:34.922Z,3.20
2018-03-22T19:48:02.592Z,3.20
2018-03-22T19:50:30.340Z,3.20
2018-03-22T19:52:57.981Z,3.20
2018-03-22T19:55:26.681Z,3.30
2018-03-22T19:57:54.334Z,3.30
2018-03-22T20:00:24.011Z,3.30
2018-03-22T20:02:52.418Z,3.30
2018-03-22T20:05:20.079Z,3.30
2018-03-22T20:07:47.737Z,3.30
2018-03-22T20:10:15.423Z,3.30
2018-03-22T20:12:43.086Z,3.30
2018-03-22T20:15:10.761Z,3.30
2018-03-22T20:17:38.396Z,3.30
2018-03-22T20:20:06.112Z,3.30
2018-03-22T20:22:33.810Z,3.30
2018-03-22T20:25:01.511Z,3.30
2018-03-22T20:27:29.186Z,3.30
2018-03-22T20:29:56.828Z,3.30
2018-03-22T20:32:24.485Z,3.30
2018-03-22T20:34:52.132Z,3.30
2018-03-22T20:37:19.781Z,3.30
2018-03-22T20:39:47.460Z,3.20
2018-03-22T20:42:15.130Z,3.20
2018-03-22T20:44:42.742Z,3.20
2018-03-22T20:47:11.175Z,3.30
2018-03-22T20:49:38.837Z,3.20
2018-03-22T20:52:06.502Z,3.20
2018-03-22T20:54:34.145Z,3.20
2018-03-22T20:57:01.819Z,3.20
2018-03-22T20:59:29.467Z,3.20
2018-03-22T21:01:57.136Z,3.30
2018-03-22T21:04:24.803Z,3.20
2018-03-22T21:06:52.479Z,3.30
2018-03-22T21:09:20.216Z,3.30
2018-03-22T21:11:47.885Z,3.30
2018-03-22T21:14:15.487Z,3.40
2018-03-22T21:16:43.128Z,3.40
2018-03-22T21:19:10.796Z,3.40
2018-03-22T21:21:38.458Z,3.30
2018-03-22T21:24:06.125Z,3.30
2018-03-22T21:26:33.780Z,3.30
2018-03-22T21:29:01.441Z,3.30
2018-03-22T21:31:29.138Z,3.40
2018-03-22T21:33:57.723Z,3.40
2018-03-22T21:36:25.388Z,3.40
2018-03-22T21:38:53.052Z,3.30
2018-03-22T21:41:20.671Z,3.30
2018-03-22T21:44:00.313Z,3.30
2018-03-22T21:46:28.014Z,3.30
2018-03-22T21:48:56.683Z,3.40
2018-03-22T21:51:25.133Z,3.40
2018-03-22T21:53:52.815Z,3.40
2018-03-22T21:56:21.223Z,3.40
2018-03-22T21:58:48.879Z,3.40
2018-03-22T22:01:16.533Z,3.40
2018-03-22T22:03:44.197Z,3.40
2018-03-22T22:06:11.882Z,3.40
2018-03-22T22:08:39.509Z,3.40
2018-03-22T22:11:07.932Z,3.40
2018-03-22T22:13:35.564Z,3.40
2018-03-22T22:16:03.199Z,3.40
2018-03-22T22:18:31.617Z,3.40
2018-03-22T22:20:59.273Z,3.30
2018-03-22T22:23:26.945Z,3.30
2018-03-22T22:25:54.595Z,3.30
2018-03-22T22:28:22.253Z,3.30
2018-03-22T22:30:49.894Z,3.30
2018-03-22T22:33:18.326Z,3.30
2018-03-22T22:35:45.961Z,3.30
2018-03-22T22:38:13.605Z,3.30
2018-03-22T22:40:41.252Z,3.30
2018-03-22T22:43:11.702Z,3.40
2018-03-22T22:45:39.353Z,3.30
2018-03-22T22:48:07.061Z,3.40
2018-03-22T22:50:34.735Z,3.40
2018-03-22T22:53:03.360Z,3.30
2018-03-22T22:55:31.024Z,3.40
2018-03-22T22:57:58.690Z,3.40
2018-03-22T23:00:26.346Z,3.40
2018-03-22T23:02:54.005Z,3.40
2018-03-22T23:05:21.681Z,3.40
2018-03-22T23:07:49.338Z,3.40
2018-03-22T23:10:17.003Z,3.30
2018-03-22T23:12:44.696Z,3.30
2018-03-22T23:15:12.351Z,3.30
2018-03-22T23:17:41.925Z,3.30
2018-03-22T23:20:09.570Z,3.30
2018-03-22T23:22:37.960Z,3.30
2018-03-22T23:25:05.604Z,3.30
2018-03-22T23:27:34.014Z,3.30
2018-03-22T23:30:01.653Z,3.20
2018-03-22T23:32:30.062Z,3.30
2018-03-22T23:34:57.704Z,3.30
2018-03-22T23:37:25.366Z,3.30
2018-03-22T23:39:53.010Z,3.30
2018-03-22T23:42:21.425Z,3.30
2018-03-22T23:44:49.052Z,3.30
2018-03-22T23:47:17.463Z,3.40
2018-03-22T23:49:45.074Z,3.40
2018-03-22T23:52:13.492Z,3.40
2018-03-22T23:54:41.141Z,3.40
2018-03-22T23:57:08.810Z,3.40
2018-03-22T23:59:36.455Z,3.40
